Augusta, Missouri
Current Conditions -  °F | °C
As of 10:55 PM on Friday 31 Oct 2014 (Local Time) from KFYG Reporting Station
Clear Clear  
Wind Chill: 30°   Ceiling: Unl
Heat Index: 34°   Visibility: 10mi
Dew Point: 23°   Wind: 5mph
Humidity: 65%   Direction: 340°NNW
Pressure: 30.4"   Gusts: NA
Location:  38.57°N, 90.88°W
Report Text: KFYG 010355Z AUTO 34004KT 10SM CLR 01/M05 A3040 RMK AO2 LTG DSNT NE
Loading
Personal Weather Stations






























Interactive Weather Map
Tropical Storm Tracking
New forecast layout! Learn more

10-Day Weather Forecast

Advertisements
Track Severe Weather on mobile